sensor_id;sensor_type;location;lat;lon;timestamp;pressure;altitude;pressure_sealevel;temperature;humidity
9764;BME280;4921;43.214;27.936;2023-05-22T00:00:22;100669.63;;;19.87;66.79
9764;BME280;4921;43.214;27.936;2023-05-22T00:02:49;100669.50;;;19.80;67.65
9764;BME280;4921;43.214;27.936;2023-05-22T00:05:16;100654.31;;;19.66;68.60
9764;BME280;4921;43.214;27.936;2023-05-22T00:07:44;100667.75;;;19.72;68.62
9764;BME280;4921;43.214;27.936;2023-05-22T00:10:11;100669.13;;;19.68;68.75
9764;BME280;4921;43.214;27.936;2023-05-22T00:12:38;100658.16;;;19.63;69.44
9764;BME280;4921;43.214;27.936;2023-05-22T00:15:08;100663.78;;;19.68;69.68
9764;BME280;4921;43.214;27.936;2023-05-22T00:17:35;100659.25;;;19.69;69.75
9764;BME280;4921;43.214;27.936;2023-05-22T00:20:03;100651.09;;;19.48;70.86
9764;BME280;4921;43.214;27.936;2023-05-22T00:22:35;100662.19;;;19.59;71.22
9764;BME280;4921;43.214;27.936;2023-05-22T00:25:03;100663.13;;;19.44;73.71
9764;BME280;4921;43.214;27.936;2023-05-22T00:27:30;100656.50;;;19.40;74.49
9764;BME280;4921;43.214;27.936;2023-05-22T00:29:57;100650.97;;;19.41;75.23
9764;BME280;4921;43.214;27.936;2023-05-22T00:32:25;100644.34;;;19.37;75.74
9764;BME280;4921;43.214;27.936;2023-05-22T00:34:52;100636.34;;;19.37;76.69
9764;BME280;4921;43.214;27.936;2023-05-22T00:37:19;100640.88;;;19.29;78.81
9764;BME280;4921;43.214;27.936;2023-05-22T00:39:47;100628.72;;;19.26;79.63
9764;BME280;4921;43.214;27.936;2023-05-22T00:42:14;100644.72;;;19.26;81.81
9764;BME280;4921;43.214;27.936;2023-05-22T00:44:41;100642.25;;;19.25;82.21
9764;BME280;4921;43.214;27.936;2023-05-22T00:47:08;100651.38;;;19.30;82.35
9764;BME280;4921;43.214;27.936;2023-05-22T00:49:36;100641.25;;;19.26;83.38
9764;BME280;4921;43.214;27.936;2023-05-22T00:52:04;100641.78;;;19.21;82.77
9764;BME280;4921;43.214;27.936;2023-05-22T00:54:31;100645.13;;;19.15;83.68
9764;BME280;4921;43.214;27.936;2023-05-22T00:56:58;100649.66;;;19.15;83.17
9764;BME280;4921;43.214;27.936;2023-05-22T00:59:26;100644.31;;;19.15;83.32
9764;BME280;4921;43.214;27.936;2023-05-22T01:01:54;100629.56;;;19.04;84.55
9764;BME280;4921;43.214;27.936;2023-05-22T01:04:21;100643.31;;;19.16;84.25
9764;BME280;4921;43.214;27.936;2023-05-22T01:06:50;100638.81;;;19.16;84.34
9764;BME280;4921;43.214;27.936;2023-05-22T01:09:17;100636.78;;;19.18;84.45
9764;BME280;4921;43.214;27.936;2023-05-22T01:11:51;100638.88;;;19.08;86.68
9764;BME280;4921;43.214;27.936;2023-05-22T01:14:24;100642.66;;;19.14;86.19
9764;BME280;4921;43.214;27.936;2023-05-22T01:16:59;100645.19;;;19.07;87.70
9764;BME280;4921;43.214;27.936;2023-05-22T01:20:02;100647.34;;;19.12;87.36
9764;BME280;4921;43.214;27.936;2023-05-22T01:26:02;100654.88;;;19.00;91.80
9764;BME280;4921;43.214;27.936;2023-05-22T01:28:41;100646.41;;;18.96;92.34
9764;BME280;4921;43.214;27.936;2023-05-22T01:31:18;100652.06;;;19.01;92.97
9764;BME280;4921;43.214;27.936;2023-05-22T01:33:53;100648.09;;;18.97;94.32
9764;BME280;4921;43.214;27.936;2023-05-22T01:36:23;100662.47;;;18.88;97.20
9764;BME280;4921;43.214;27.936;2023-05-22T01:38:52;100662.63;;;18.87;97.59
9764;BME280;4921;43.214;27.936;2023-05-22T01:41:19;100661.44;;;18.89;97.13
9764;BME280;4921;43.214;27.936;2023-05-22T01:43:47;100655.47;;;18.87;97.21
9764;BME280;4921;43.214;27.936;2023-05-22T01:46:14;100656.81;;;18.83;98.86
9764;BME280;4921;43.214;27.936;2023-05-22T01:48:42;100658.81;;;18.81;99.46
9764;BME280;4921;43.214;27.936;2023-05-22T01:51:14;100658.81;;;18.81;98.84
9764;BME280;4921;43.214;27.936;2023-05-22T01:53:49;100652.69;;;18.73;99.38
9764;BME280;4921;43.214;27.936;2023-05-22T01:56:22;100651.25;;;18.62;100.00
9764;BME280;4921;43.214;27.936;2023-05-22T01:59:00;100658.09;;;18.57;100.00
9764;BME280;4921;43.214;27.936;2023-05-22T02:01:31;100657.59;;;18.53;100.00
9764;BME280;4921;43.214;27.936;2023-05-22T02:04:03;100650.28;;;18.55;100.00
9764;BME280;4921;43.214;27.936;2023-05-22T02:06:32;100649.44;;;18.55;100.00
9764;BME280;4921;43.214;27.936;2023-05-22T02:09:00;100649.63;;;18.53;100.00
9764;BME280;4921;43.214;27.936;2023-05-22T02:11:30;100646.97;;;18.53;100.00
9764;BME280;4921;43.214;27.936;2023-05-22T02:13:58;100647.97;;;18.44;100.00
9764;BME280;4921;43.214;27.936;2023-05-22T02:16:27;100647.66;;;18.39;100.00
9764;BME280;4921;43.214;27.936;2023-05-22T02:18:58;100643.78;;;18.42;100.00
9764;BME280;4921;43.214;27.936;2023-05-22T02:21:32;100630.88;;;18.22;100.00
9764;BME280;4921;43.214;27.936;2023-05-22T02:23:59;100648.16;;;18.26;100.00
9764;BME280;4921;43.214;27.936;2023-05-22T02:26:26;100647.19;;;18.27;100.00
9764;BME280;4921;43.214;27.936;2023-05-22T02:28:53;100646.03;;;18.22;100.00
9764;BME280;4921;43.214;27.936;2023-05-22T02:31:20;100640.91;;;18.12;100.00
9764;BME280;4921;43.214;27.936;2023-05-22T02:33:47;100646.53;;;18.09;100.00
9764;BME280;4921;43.214;27.936;2023-05-22T02:36:14;100646.53;;;18.09;100.00
9764;BME280;4921;43.214;27.936;2023-05-22T02:38:42;100648.56;;;18.15;100.00
9764;BME280;4921;43.214;27.936;2023-05-22T02:41:09;100637.72;;;18.17;100.00
9764;BME280;4921;43.214;27.936;2023-05-22T02:43:36;100639.91;;;18.13;100.00
9764;BME280;4921;43.214;27.936;2023-05-22T02:46:03;100628.72;;;18.18;100.00
9764;BME280;4921;43.214;27.936;2023-05-22T02:48:30;100635.41;;;18.14;100.00
9764;BME280;4921;43.214;27.936;2023-05-22T02:50:57;100638.22;;;18.12;100.00
9764;BME280;4921;43.214;27.936;2023-05-22T02:53:24;100636.75;;;18.10;100.00
9764;BME280;4921;43.214;27.936;2023-05-22T02:55:52;100646.38;;;18.03;100.00
9764;BME280;4921;43.214;27.936;2023-05-22T02:58:23;100642.25;;;18.00;100.00
9764;BME280;4921;43.214;27.936;2023-05-22T03:00:50;100643.25;;;17.99;100.00
9764;BME280;4921;43.214;27.936;2023-05-22T03:03:18;100643.91;;;18.01;100.00
9764;BME280;4921;43.214;27.936;2023-05-22T03:05:45;100644.56;;;18.03;100.00
9764;BME280;4921;43.214;27.936;2023-05-22T03:08:12;100642.41;;;18.07;100.00
9764;BME280;4921;43.214;27.936;2023-05-22T03:10:41;100638.91;;;18.06;100.00
9764;BME280;4921;43.214;27.936;2023-05-22T03:13:09;100638.59;;;18.01;100.00
9764;BME280;4921;43.214;27.936;2023-05-22T03:15:36;100638.28;;;17.96;100.00
9764;BME280;4921;43.214;27.936;2023-05-22T03:18:03;100635.44;;;17.98;100.00
9764;BME280;4921;43.214;27.936;2023-05-22T03:20:30;100638.25;;;18.04;100.00
9764;BME280;4921;43.214;27.936;2023-05-22T03:22:58;100637.41;;;18.04;100.00
9764;BME280;4921;43.214;27.936;2023-05-22T03:25:25;100633.44;;;18.00;100.00
9764;BME280;4921;43.214;27.936;2023-05-22T03:27:52;100633.63;;;17.98;100.00
9764;BME280;4921;43.214;27.936;2023-05-22T03:30:21;100628.78;;;18.02;100.00
9764;BME280;4921;43.214;27.936;2023-05-22T03:32:48;100638.94;;;17.98;100.00
9764;BME280;4921;43.214;27.936;2023-05-22T03:35:17;100633.94;;;17.95;100.00
9764;BME280;4921;43.214;27.936;2023-05-22T03:37:44;100637.91;;;18.07;100.00
9764;BME280;4921;43.214;27.936;2023-05-22T03:40:12;100638.06;;;18.14;100.00
9764;BME280;4921;43.214;27.936;2023-05-22T03:42:39;100637.41;;;18.12;100.00
9764;BME280;4921;43.214;27.936;2023-05-22T03:45:07;100643.06;;;18.09;100.00
9764;BME280;4921;43.214;27.936;2023-05-22T03:47:35;100641.06;;;18.19;100.00
9764;BME280;4921;43.214;27.936;2023-05-22T03:50:03;100648.53;;;18.23;100.00
9764;BME280;4921;43.214;27.936;2023-05-22T03:52:30;100638.88;;;18.31;100.00
9764;BME280;4921;43.214;27.936;2023-05-22T03:54:57;100643.16;;;18.32;100.00
9764;BME280;4921;43.214;27.936;2023-05-22T03:57:24;100647.31;;;18.34;100.00
9764;BME280;4921;43.214;27.936;2023-05-22T03:59:51;100648.66;;;18.38;100.00
9764;BME280;4921;43.214;27.936;2023-05-22T04:02:18;100642.34;;;18.39;100.00
9764;BME280;4921;43.214;27.936;2023-05-22T04:04:46;100649.97;;;18.42;100.00
9764;BME280;4921;43.214;27.936;2023-05-22T04:07:13;100643.97;;;18.48;100.00
9764;BME280;4921;43.214;27.936;2023-05-22T04:09:42;100638.31;;;18.43;100.00
9764;BME280;4921;43.214;27.936;2023-05-22T04:12:10;100645.13;;;18.54;100.00
9764;BME280;4921;43.214;27.936;2023-05-22T04:14:37;100639.44;;;18.57;100.00
9764;BME280;4921;43.214;27.936;2023-05-22T04:17:04;100638.63;;;18.56;100.00
9764;BME280;4921;43.214;27.936;2023-05-22T04:19:31;100638.78;;;18.63;100.00
9764;BME280;4921;43.214;27.936;2023-05-22T04:21:59;100641.72;;;18.68;100.00
9764;BME280;4921;43.214;27.936;2023-05-22T04:24:26;100640.22;;;18.73;100.00
9764;BME280;4921;43.214;27.936;2023-05-22T04:26:53;100636.53;;;18.82;100.00
9764;BME280;4921;43.214;27.936;2023-05-22T04:29:20;100637.31;;;18.91;100.00
9764;BME280;4921;43.214;27.936;2023-05-22T04:31:48;100638.88;;;19.08;100.00
9764;BME280;4921;43.214;27.936;2023-05-22T04:34:18;100639.47;;;19.18;100.00
9764;BME280;4921;43.214;27.936;2023-05-22T04:36:46;100648.03;;;19.28;100.00
9764;BME280;4921;43.214;27.936;2023-05-22T04:39:15;100646.03;;;19.38;100.00
9764;BME280;4921;43.214;27.936;2023-05-22T04:41:42;100638.06;;;19.53;100.00
9764;BME280;4921;43.214;27.936;2023-05-22T04:44:10;100641.19;;;19.56;100.00
9764;BME280;4921;43.214;27.936;2023-05-22T04:46:38;100648.84;;;19.59;100.00
9764;BME280;4921;43.214;27.936;2023-05-22T04:49:05;100650.88;;;19.57;100.00
9764;BME280;4921;43.214;27.936;2023-05-22T04:51:32;100650.69;;;19.59;100.00
9764;BME280;4921;43.214;27.936;2023-05-22T04:53:59;100651.88;;;19.56;100.00
9764;BME280;4921;43.214;27.936;2023-05-22T04:56:28;100648.56;;;19.54;100.00
9764;BME280;4921;43.214;27.936;2023-05-22T04:58:56;100646.53;;;19.56;100.00
9764;BME280;4921;43.214;27.936;2023-05-22T05:01:23;100653.72;;;19.56;100.00
9764;BME280;4921;43.214;27.936;2023-05-22T05:03:52;100654.00;;;19.61;100.00
9764;BME280;4921;43.214;27.936;2023-05-22T05:06:19;100657.16;;;19.64;100.00
9764;BME280;4921;43.214;27.936;2023-05-22T05:08:46;100654.31;;;19.66;100.00
9764;BME280;4921;43.214;27.936;2023-05-22T05:11:14;100646.59;;;19.71;100.00
9764;BME280;4921;43.214;27.936;2023-05-22T05:13:42;100654.22;;;19.74;100.00
9764;BME280;4921;43.214;27.936;2023-05-22T05:16:09;100657.91;;;19.73;100.00
9764;BME280;4921;43.214;27.936;2023-05-22T05:18:36;100656.13;;;19.88;100.00
9764;BME280;4921;43.214;27.936;2023-05-22T05:21:03;100651.25;;;19.92;100.00
9764;BME280;4921;43.214;27.936;2023-05-22T05:23:30;100650.03;;;19.94;100.00
9764;BME280;4921;43.214;27.936;2023-05-22T05:25:57;100647.47;;;20.01;100.00
9764;BME280;4921;43.214;27.936;2023-05-22T05:28:24;100651.34;;;20.13;100.00
9764;BME280;4921;43.214;27.936;2023-05-22T05:30:52;100642.28;;;20.22;100.00
9764;BME280;4921;43.214;27.936;2023-05-22T05:33:19;100640.53;;;20.29;100.00
9764;BME280;4921;43.214;27.936;2023-05-22T05:35:46;100634.25;;;20.36;100.00
9764;BME280;4921;43.214;27.936;2023-05-22T05:38:15;100640.19;;;20.46;100.00
9764;BME280;4921;43.214;27.936;2023-05-22T05:40:43;100636.38;;;20.56;100.00
9764;BME280;4921;43.214;27.936;2023-05-22T05:43:10;100640.41;;;20.66;100.00
9764;BME280;4921;43.214;27.936;2023-05-22T05:45:39;100640.31;;;20.74;100.00
9764;BME280;4921;43.214;27.936;2023-05-22T05:48:07;100644.78;;;20.88;100.00
9764;BME280;4921;43.214;27.936;2023-05-22T05:50:34;100644.03;;;20.94;100.00
9764;BME280;4921;43.214;27.936;2023-05-22T05:53:01;100645.63;;;21.03;100.00
9764;BME280;4921;43.214;27.936;2023-05-22T05:55:29;100648.81;;;21.13;100.00
9764;BME280;4921;43.214;27.936;2023-05-22T05:57:57;100650.81;;;21.26;99.30
9764;BME280;4921;43.214;27.936;2023-05-22T06:00:24;100649.66;;;21.35;96.71
9764;BME280;4921;43.214;27.936;2023-05-22T06:02:51;100654.69;;;21.45;94.31
9764;BME280;4921;43.214;27.936;2023-05-22T06:05:20;100656.88;;;21.56;98.77
9764;BME280;4921;43.214;27.936;2023-05-22T06:07:47;100658.41;;;21.65;98.89
9764;BME280;4921;43.214;27.936;2023-05-22T06:10:14;100657.34;;;21.66;100.00
9764;BME280;4921;43.214;27.936;2023-05-22T06:12:41;100661.19;;;21.78;96.12
9764;BME280;4921;43.214;27.936;2023-05-22T06:15:08;100665.41;;;21.87;86.04
9764;BME280;4921;43.214;27.936;2023-05-22T06:17:37;100668.53;;;21.90;80.14
9764;BME280;4921;43.214;27.936;2023-05-22T06:20:05;100661.03;;;22.07;78.08
9764;BME280;4921;43.214;27.936;2023-05-22T06:22:34;100665.91;;;22.25;74.58
9764;BME280;4921;43.214;27.936;2023-05-22T06:25:01;100666.94;;;22.30;79.42
9764;BME280;4921;43.214;27.936;2023-05-22T06:27:28;100657.69;;;22.33;80.59
9764;BME280;4921;43.214;27.936;2023-05-22T06:29:55;100665.56;;;22.41;73.68
9764;BME280;4921;43.214;27.936;2023-05-22T06:32:22;100658.63;;;22.53;65.69
9764;BME280;4921;43.214;27.936;2023-05-22T06:34:49;100664.06;;;22.59;60.28
9764;BME280;4921;43.214;27.936;2023-05-22T06:37:16;100658.84;;;22.51;61.92
9764;BME280;4921;43.214;27.936;2023-05-22T06:39:44;100664.06;;;22.59;67.47
9764;BME280;4921;43.214;27.936;2023-05-22T06:42:11;100654.66;;;22.77;64.40
9764;BME280;4921;43.214;27.936;2023-05-22T06:44:38;100660.88;;;22.84;63.52
9764;BME280;4921;43.214;27.936;2023-05-22T06:47:05;100658.56;;;22.74;63.42
9764;BME280;4921;43.214;27.936;2023-05-22T06:49:32;100662.66;;;22.70;57.83
9764;BME280;4921;43.214;27.936;2023-05-22T06:51:59;100657.78;;;22.87;59.42
9764;BME280;4921;43.214;27.936;2023-05-22T06:54:26;100661.97;;;23.02;61.69
9764;BME280;4921;43.214;27.936;2023-05-22T06:56:55;100647.97;;;23.07;62.09
9764;BME280;4921;43.214;27.936;2023-05-22T06:59:24;100659.34;;;23.22;60.76
9764;BME280;4921;43.214;27.936;2023-05-22T07:01:50;100661.59;;;23.12;58.85
9764;BME280;4921;43.214;27.936;2023-05-22T07:04:17;100659.13;;;23.23;57.70
9764;BME280;4921;43.214;27.936;2023-05-22T07:06:44;100659.59;;;23.33;56.04
9764;BME280;4921;43.214;27.936;2023-05-22T07:09:13;100662.41;;;23.12;57.53
9764;BME280;4921;43.214;27.936;2023-05-22T07:11:40;100657.03;;;23.06;58.27
9764;BME280;4921;43.214;27.936;2023-05-22T07:14:09;100660.38;;;23.21;56.51
9764;BME280;4921;43.214;27.936;2023-05-22T07:16:37;100650.09;;;23.31;54.96
9764;BME280;4921;43.214;27.936;2023-05-22T07:19:05;100659.81;;;23.38;55.84
9764;BME280;4921;43.214;27.936;2023-05-22T07:21:33;100660.06;;;23.50;56.48
9764;BME280;4921;43.214;27.936;2023-05-22T07:24:00;100659.84;;;23.45;55.78
9764;BME280;4921;43.214;27.936;2023-05-22T07:26:32;100653.47;;;23.53;56.35
9764;BME280;4921;43.214;27.936;2023-05-22T07:29:00;100660.22;;;23.42;59.61
9764;BME280;4921;43.214;27.936;2023-05-22T07:31:28;100652.00;;;23.50;59.17
9764;BME280;4921;43.214;27.936;2023-05-22T07:33:55;100654.88;;;23.48;62.35
9764;BME280;4921;43.214;27.936;2023-05-22T07:36:22;100652.19;;;23.35;64.09
9764;BME280;4921;43.214;27.936;2023-05-22T07:38:49;100660.06;;;23.50;63.53
9764;BME280;4921;43.214;27.936;2023-05-22T07:41:17;100642.88;;;23.38;61.84
9764;BME280;4921;43.214;27.936;2023-05-22T07:43:44;100652.41;;;23.54;55.87
9764;BME280;4921;43.214;27.936;2023-05-22T07:46:11;100646.63;;;23.43;54.45
9764;BME280;4921;43.214;27.936;2023-05-22T07:48:39;100650.13;;;23.57;53.55
9764;BME280;4921;43.214;27.936;2023-05-22T07:51:06;100642.03;;;23.31;54.95
9764;BME280;4921;43.214;27.936;2023-05-22T07:53:33;100648.19;;;23.31;55.64
9764;BME280;4921;43.214;27.936;2023-05-22T07:56:00;100644.34;;;23.47;54.51
9764;BME280;4921;43.214;27.936;2023-05-22T07:58:27;100646.44;;;23.58;55.11
9764;BME280;4921;43.214;27.936;2023-05-22T08:00:54;100650.34;;;23.56;54.09
9764;BME280;4921;43.214;27.936;2023-05-22T08:03:21;100639.19;;;23.52;53.28
9764;BME280;4921;43.214;27.936;2023-05-22T08:05:49;100635.66;;;23.45;53.46
9764;BME280;4921;43.214;27.936;2023-05-22T08:08:17;100645.16;;;23.41;55.46
9764;BME280;4921;43.214;27.936;2023-05-22T08:10:43;100647.09;;;22.93;58.25
9764;BME280;4921;43.214;27.936;2023-05-22T08:13:10;100636.97;;;22.54;61.66
9764;BME280;4921;43.214;27.936;2023-05-22T08:15:37;100646.41;;;22.44;62.77
9764;BME280;4921;43.214;27.936;2023-05-22T08:18:04;100639.66;;;22.54;62.46
9764;BME280;4921;43.214;27.936;2023-05-22T08:20:31;100640.28;;;22.56;63.34
9764;BME280;4921;43.214;27.936;2023-05-22T08:22:59;100634.09;;;22.56;65.14
9764;BME280;4921;43.214;27.936;2023-05-22T08:25:26;100640.94;;;22.24;65.74
9764;BME280;4921;43.214;27.936;2023-05-22T08:27:53;100642.88;;;22.37;67.29
9764;BME280;4921;43.214;27.936;2023-05-22T08:30:20;100634.06;;;22.49;66.92
9764;BME280;4921;43.214;27.936;2023-05-22T08:32:47;100648.94;;;22.18;67.28
9764;BME280;4921;43.214;27.936;2023-05-22T08:35:14;100644.28;;;22.33;69.12
9764;BME280;4921;43.214;27.936;2023-05-22T08:37:42;100646.22;;;22.45;69.97
9764;BME280;4921;43.214;27.936;2023-05-22T08:40:11;100639.81;;;22.40;69.33
9764;BME280;4921;43.214;27.936;2023-05-22T08:42:38;100641.66;;;22.39;67.56
9764;BME280;4921;43.214;27.936;2023-05-22T08:45:06;100643.38;;;22.53;67.75
9764;BME280;4921;43.214;27.936;2023-05-22T08:47:34;100639.25;;;22.51;65.78
9764;BME280;4921;43.214;27.936;2023-05-22T08:50:02;100633.31;;;22.28;68.31
9764;BME280;4921;43.214;27.936;2023-05-22T08:52:33;100639.38;;;22.09;69.37
9764;BME280;4921;43.214;27.936;2023-05-22T08:55:02;100636.72;;;22.09;72.13
9764;BME280;4921;43.214;27.936;2023-05-22T08:57:33;100630.56;;;22.08;77.07
9764;BME280;4921;43.214;27.936;2023-05-22T09:00:00;100637.03;;;22.27;73.29
9764;BME280;4921;43.214;27.936;2023-05-22T09:02:28;100642.47;;;22.40;75.80
9764;BME280;4921;43.214;27.936;2023-05-22T09:04:55;100630.63;;;22.21;72.85
9764;BME280;4921;43.214;27.936;2023-05-22T09:07:22;100635.94;;;22.15;79.71
9764;BME280;4921;43.214;27.936;2023-05-22T09:09:52;100641.25;;;22.08;79.51
9764;BME280;4921;43.214;27.936;2023-05-22T09:12:19;100641.50;;;21.64;84.24
9764;BME280;4921;43.214;27.936;2023-05-22T09:14:47;100631.56;;;21.58;91.65
9764;BME280;4921;43.214;27.936;2023-05-22T09:17:14;100636.94;;;21.58;88.41
9764;BME280;4921;43.214;27.936;2023-05-22T09:19:43;100634.00;;;21.81;90.56
9764;BME280;4921;43.214;27.936;2023-05-22T09:22:10;100622.41;;;21.74;92.85
9764;BME280;4921;43.214;27.936;2023-05-22T09:24:38;100638.34;;;21.82;88.27
9764;BME280;4921;43.214;27.936;2023-05-22T09:27:07;100629.69;;;21.59;83.68
9764;BME280;4921;43.214;27.936;2023-05-22T09:29:47;100630.94;;;21.56;86.41
9764;BME280;4921;43.214;27.936;2023-05-22T09:32:15;100624.72;;;21.77;85.97
9764;BME280;4921;43.214;27.936;2023-05-22T09:34:43;100629.38;;;21.89;82.46
9764;BME280;4921;43.214;27.936;2023-05-22T09:37:11;100635.56;;;21.69;83.64
9764;BME280;4921;43.214;27.936;2023-05-22T09:39:38;100625.28;;;21.72;88.36
9764;BME280;4921;43.214;27.936;2023-05-22T09:42:07;100614.41;;;21.53;92.14
9764;BME280;4921;43.214;27.936;2023-05-22T09:44:36;100628.00;;;21.30;94.37
9764;BME280;4921;43.214;27.936;2023-05-22T09:47:05;100638.28;;;21.48;97.56
9764;BME280;4921;43.214;27.936;2023-05-22T09:49:35;100633.47;;;21.64;99.53
9764;BME280;4921;43.214;27.936;2023-05-22T09:52:03;100627.16;;;21.93;94.11
9764;BME280;4921;43.214;27.936;2023-05-22T09:54:33;100624.06;;;21.96;92.39
9764;BME280;4921;43.214;27.936;2023-05-22T09:57:04;100622.47;;;21.80;100.00
9764;BME280;4921;43.214;27.936;2023-05-22T09:59:32;100636.81;;;21.45;100.00
9764;BME280;4921;43.214;27.936;2023-05-22T10:02:06;100637.31;;;21.55;100.00
9764;BME280;4921;43.214;27.936;2023-05-22T10:04:35;100635.31;;;21.85;100.00
9764;BME280;4921;43.214;27.936;2023-05-22T10:07:05;100640.03;;;21.83;100.00
9764;BME280;4921;43.214;27.936;2023-05-22T10:09:34;100635.50;;;21.83;100.00
9764;BME280;4921;43.214;27.936;2023-05-22T10:12:05;100645.03;;;22.20;100.00
9764;BME280;4921;43.214;27.936;2023-05-22T10:14:35;100637.59;;;22.16;100.00
9764;BME280;4921;43.214;27.936;2023-05-22T10:17:02;100632.31;;;21.94;100.00
9764;BME280;4921;43.214;27.936;2023-05-22T10:19:34;100635.94;;;21.66;100.00
9764;BME280;4921;43.214;27.936;2023-05-22T10:22:02;100630.31;;;21.82;100.00
9764;BME280;4921;43.214;27.936;2023-05-22T10:24:30;100636.28;;;22.05;100.00
9764;BME280;4921;43.214;27.936;2023-05-22T10:26:58;100631.84;;;21.70;100.00
9764;BME280;4921;43.214;27.936;2023-05-22T10:29:32;100637.56;;;21.60;100.00
9764;BME280;4921;43.214;27.936;2023-05-22T10:32:05;100630.09;;;21.56;100.00
9764;BME280;4921;43.214;27.936;2023-05-22T10:34:41;100629.75;;;21.65;100.00
9764;BME280;4921;43.214;27.936;2023-05-22T10:37:25;100624.22;;;21.67;100.00
9764;BME280;4921;43.214;27.936;2023-05-22T10:40:01;100641.03;;;21.82;100.00
9764;BME280;4921;43.214;27.936;2023-05-22T10:42:30;100635.88;;;21.59;100.00
9764;BME280;4921;43.214;27.936;2023-05-22T10:44:59;100641.97;;;21.47;100.00
9764;BME280;4921;43.214;27.936;2023-05-22T10:47:26;100641.25;;;21.59;100.00
9764;BME280;4921;43.214;27.936;2023-05-22T10:50:05;100639.53;;;21.52;100.00
9764;BME280;4921;43.214;27.936;2023-05-22T10:52:33;100649.22;;;21.32;100.00
9764;BME280;4921;43.214;27.936;2023-05-22T10:55:05;100648.06;;;21.19;100.00
9764;BME280;4921;43.214;27.936;2023-05-22T10:57:33;100641.38;;;21.30;100.00
9764;BME280;4921;43.214;27.936;2023-05-22T11:00:09;100638.72;;;21.09;100.00
9764;BME280;4921;43.214;27.936;2023-05-22T11:02:41;100637.66;;;21.10;100.00
9764;BME280;4921;43.214;27.936;2023-05-22T11:05:34;100624.66;;;21.07;100.00
9764;BME280;4921;43.214;27.936;2023-05-22T11:08:09;100631.75;;;20.64;100.00
9764;BME280;4921;43.214;27.936;2023-05-22T11:10:51;100638.69;;;20.59;100.00
9764;BME280;4921;43.214;27.936;2023-05-22T11:13:19;100628.69;;;20.82;100.00
9764;BME280;4921;43.214;27.936;2023-05-22T11:15:46;100627.75;;;21.04;100.00
9764;BME280;4921;43.214;27.936;2023-05-22T11:18:13;100621.56;;;21.03;100.00
9764;BME280;4921;43.214;27.936;2023-05-22T11:20:45;100614.81;;;21.07;100.00
9764;BME280;4921;43.214;27.936;2023-05-22T11:23:12;100623.03;;;21.27;100.00
9764;BME280;4921;43.214;27.936;2023-05-22T11:25:40;100601.06;;;21.10;100.00
9764;BME280;4921;43.214;27.936;2023-05-22T11:28:09;100614.69;;;21.37;100.00
9764;BME280;4921;43.214;27.936;2023-05-22T11:30:36;100617.78;;;20.98;100.00
9764;BME280;4921;43.214;27.936;2023-05-22T11:33:03;100617.81;;;21.19;100.00
9764;BME280;4921;43.214;27.936;2023-05-22T11:35:31;100619.59;;;21.12;100.00
9764;BME280;4921;43.214;27.936;2023-05-22T11:38:03;100621.25;;;20.98;100.00
9764;BME280;4921;43.214;27.936;2023-05-22T11:40:30;100614.56;;;21.23;100.00
9764;BME280;4921;43.214;27.936;2023-05-22T11:42:57;100614.81;;;21.28;100.00
9764;BME280;4921;43.214;27.936;2023-05-22T11:45:23;100618.25;;;21.22;100.00
9764;BME280;4921;43.214;27.936;2023-05-22T11:47:50;100606.63;;;21.30;100.00
9764;BME280;4921;43.214;27.936;2023-05-22T11:50:18;100611.81;;;21.17;100.00
9764;BME280;4921;43.214;27.936;2023-05-22T11:52:45;100608.66;;;21.28;100.00
9764;BME280;4921;43.214;27.936;2023-05-22T11:55:13;100607.38;;;21.24;100.00
9764;BME280;4921;43.214;27.936;2023-05-22T11:57:40;100599.44;;;21.37;100.00
9764;BME280;4921;43.214;27.936;2023-05-22T12:00:08;100599.78;;;21.49;100.00
9764;BME280;4921;43.214;27.936;2023-05-22T12:02:35;100599.50;;;21.65;100.00
9764;BME280;4921;43.214;27.936;2023-05-22T12:05:02;100599.16;;;21.74;100.00
9764;BME280;4921;43.214;27.936;2023-05-22T12:07:30;100603.16;;;21.85;100.00
9764;BME280;4921;43.214;27.936;2023-05-22T12:09:57;100615.91;;;22.11;100.00
9764;BME280;4921;43.214;27.936;2023-05-22T12:12:26;100604.03;;;22.20;100.00
9764;BME280;4921;43.214;27.936;2023-05-22T12:14:53;100603.66;;;22.29;100.00
9764;BME280;4921;43.214;27.936;2023-05-22T12:17:21;100600.22;;;22.42;100.00
9764;BME280;4921;43.214;27.936;2023-05-22T12:19:48;100598.00;;;22.52;100.00
9764;BME280;4921;43.214;27.936;2023-05-22T12:22:15;100592.44;;;22.47;100.00
9764;BME280;4921;43.214;27.936;2023-05-22T12:24:43;100594.94;;;22.55;100.00
9764;BME280;4921;43.214;27.936;2023-05-22T12:27:11;100592.81;;;22.44;100.00
9764;BME280;4921;43.214;27.936;2023-05-22T12:29:41;100598.06;;;21.90;100.00
9764;BME280;4921;43.214;27.936;2023-05-22T12:32:09;100592.75;;;21.69;100.00
9764;BME280;4921;43.214;27.936;2023-05-22T12:34:42;100594.50;;;21.83;100.00
9764;BME280;4921;43.214;27.936;2023-05-22T12:37:17;100598.78;;;21.77;100.00
9764;BME280;4921;43.214;27.936;2023-05-22T12:39:52;100599.69;;;21.84;100.00
9764;BME280;4921;43.214;27.936;2023-05-22T12:42:19;100607.19;;;21.74;100.00
9764;BME280;4921;43.214;27.936;2023-05-22T12:44:49;100599.69;;;21.84;100.00
9764;BME280;4921;43.214;27.936;2023-05-22T12:47:17;100602.59;;;21.89;100.00
9764;BME280;4921;43.214;27.936;2023-05-22T12:49:44;100596.03;;;21.92;100.00
9764;BME280;4921;43.214;27.936;2023-05-22T12:52:11;100602.47;;;21.76;99.61
9764;BME280;4921;43.214;27.936;2023-05-22T12:54:38;100602.41;;;21.70;99.35
9764;BME280;4921;43.214;27.936;2023-05-22T12:57:05;100604.88;;;21.65;95.96
9764;BME280;4921;43.214;27.936;2023-05-22T12:59:32;100602.25;;;21.71;94.67
9764;BME280;4921;43.214;27.936;2023-05-22T13:02:02;100602.63;;;21.68;99.40
9764;BME280;4921;43.214;27.936;2023-05-22T13:04:30;100610.38;;;21.63;96.33